createdAt,value
2022-10-11T00:02:55.300Z,11.70
2022-10-11T00:08:01.759Z,11.70
2022-10-11T00:13:06.011Z,11.80
2022-10-11T00:18:10.933Z,11.70
2022-10-11T00:23:20.560Z,11.80
2022-10-11T00:28:24.402Z,11.80
2022-10-11T00:33:27.592Z,11.70
2022-10-11T00:38:34.440Z,11.70
2022-10-11T00:43:38.194Z,11.70
2022-10-11T00:48:46.932Z,11.70
2022-10-11T00:53:52.557Z,11.70
2022-10-11T00:58:59.536Z,11.70
2022-10-11T01:04:05.137Z,11.60
2022-10-11T01:09:12.416Z,11.60
2022-10-11T01:14:53.483Z,11.70
2022-10-11T01:20:31.125Z,11.70
2022-10-11T01:25:39.729Z,11.70
2022-10-11T01:30:48.301Z,11.60
2022-10-11T01:35:59.717Z,11.60
2022-10-11T01:41:09.144Z,11.60
2022-10-11T01:46:16.892Z,11.50
2022-10-11T01:51:21.860Z,11.50
2022-10-11T01:56:36.327Z,11.40
2022-10-11T02:01:55.832Z,11.30
2022-10-11T02:07:05.393Z,11.20
2022-10-11T02:12:12.394Z,11.20
2022-10-11T02:17:21.617Z,11.20
2022-10-11T02:22:30.349Z,11.10
2022-10-11T02:27:37.705Z,11.10
2022-10-11T02:32:45.760Z,11.00
2022-10-11T02:37:55.847Z,11.00
2022-10-11T02:43:04.945Z,11.10
2022-10-11T02:48:10.921Z,11.10
2022-10-11T02:53:15.074Z,11.20
2022-10-11T02:58:19.996Z,11.20
2022-10-11T03:03:24.383Z,11.40
2022-10-11T03:08:29.740Z,11.50
2022-10-11T03:13:32.014Z,11.70
2022-10-11T03:18:36.639Z,11.70
2022-10-11T03:23:38.879Z,11.80
2022-10-11T03:28:41.122Z,11.90
2022-10-11T03:33:45.010Z,12.00
2022-10-11T03:38:47.420Z,12.10
2022-10-11T03:43:49.640Z,12.20
2022-10-11T03:48:53.198Z,12.30
2022-10-11T03:53:55.395Z,12.30
2022-10-11T03:58:57.574Z,12.30
2022-10-11T04:04:01.139Z,12.30
2022-10-11T04:09:04.234Z,12.40
2022-10-11T04:14:06.390Z,12.40
2022-10-11T04:19:09.991Z,12.40
2022-10-11T04:24:12.986Z,12.40
2022-10-11T04:29:15.196Z,12.40
2022-10-11T04:34:19.228Z,12.30
2022-10-11T04:39:21.478Z,12.40
2022-10-11T04:44:23.911Z,12.30
2022-10-11T04:49:27.580Z,12.30
2022-10-11T04:54:29.908Z,12.20
2022-10-11T04:59:32.376Z,12.10
2022-10-11T05:04:38.640Z,12.00
2022-10-11T05:09:40.818Z,12.00
2022-10-11T05:14:43.078Z,12.00
2022-10-11T05:19:46.682Z,12.10
2022-10-11T05:24:48.900Z,12.10
2022-10-11T05:29:51.243Z,12.00
2022-10-11T05:34:54.871Z,12.00
2022-10-11T05:39:57.249Z,12.00
2022-10-11T05:44:59.725Z,11.90
2022-10-11T05:50:03.232Z,11.90
2022-10-11T05:55:05.799Z,11.90
2022-10-11T06:00:09.033Z,12.00
2022-10-11T06:05:13.035Z,12.10
2022-10-11T06:10:15.166Z,12.20
2022-10-11T06:15:17.466Z,12.40
2022-10-11T06:20:21.318Z,12.60
2022-10-11T06:25:23.518Z,12.70
2022-10-11T06:30:25.770Z,12.90
2022-10-11T06:35:29.334Z,13.10
2022-10-11T06:40:31.415Z,13.20
2022-10-11T06:45:33.525Z,13.60
2022-10-11T06:50:58.569Z,14.30
2022-10-11T06:56:04.512Z,14.70
2022-10-11T07:01:08.801Z,15.00
2022-10-11T07:06:14.185Z,15.40
2022-10-11T07:11:18.359Z,15.70
2022-10-11T07:16:21.553Z,16.00
2022-10-11T07:21:25.400Z,16.00
2022-10-11T07:26:27.592Z,15.60
2022-10-11T07:31:29.744Z,15.30
2022-10-11T07:36:33.530Z,15.10
2022-10-11T07:41:38.164Z,15.10
2022-10-11T07:46:42.911Z,15.10
2022-10-11T07:51:46.370Z,15.20
2022-10-11T07:56:51.282Z,15.60
2022-10-11T08:01:53.462Z,15.90
2022-10-11T08:06:57.016Z,16.10
2022-10-11T08:11:59.195Z,16.30
2022-10-11T08:17:02.468Z,16.30
2022-10-11T08:22:06.135Z,16.20
2022-10-11T08:27:08.216Z,16.30
2022-10-11T08:32:12.216Z,16.20
2022-10-11T08:37:15.735Z,16.30
2022-10-11T08:42:25.708Z,16.30
2022-10-11T08:47:31.798Z,16.50
2022-10-11T08:52:46.033Z,16.60
2022-10-11T08:57:53.201Z,16.60
2022-10-11T09:03:09.238Z,16.80
2022-10-11T09:08:22.491Z,16.90
2022-10-11T09:13:41.808Z,16.90
2022-10-11T09:19:10.852Z,17.10
2022-10-11T09:24:45.836Z,17.30
2022-10-11T09:29:58.402Z,17.70
2022-10-11T09:35:11.307Z,17.70
2022-10-11T09:40:36.345Z,17.40
2022-10-11T09:45:38.834Z,17.40
2022-10-11T09:50:40.993Z,17.40
2022-10-11T09:55:52.324Z,17.20
2022-10-11T10:01:07.648Z,17.20
2022-10-11T10:06:16.488Z,17.50
2022-10-11T10:11:21.060Z,17.90
2022-10-11T10:16:25.944Z,18.00
2022-10-11T10:21:31.134Z,18.20
2022-10-11T10:26:35.031Z,18.60
2022-10-11T10:32:08.851Z,19.20
2022-10-11T10:37:09.063Z,19.70
2022-10-11T10:42:17.636Z,19.70
2022-10-11T10:47:30.217Z,19.90
2022-10-11T10:52:48.090Z,20.10
2022-10-11T10:58:05.339Z,20.10
2022-10-11T11:03:13.459Z,19.90
2022-10-11T11:08:23.843Z,20.60
2022-10-11T11:13:42.493Z,21.00
2022-10-11T11:18:54.631Z,21.60
2022-10-11T11:24:06.345Z,21.50
2022-10-11T11:29:20.107Z,21.20
2022-10-11T11:34:25.116Z,21.30
2022-10-11T11:39:31.774Z,21.50
2022-10-11T11:44:39.652Z,21.90
2022-10-11T11:49:47.770Z,22.10
2022-10-11T11:54:58.988Z,22.30
2022-10-11T12:00:08.276Z,22.20
2022-10-11T12:10:25.119Z,22.80
2022-10-11T12:15:28.654Z,22.70
2022-10-11T12:20:32.737Z,22.60
2022-10-11T12:25:44.209Z,22.20
2022-10-11T12:31:04.522Z,22.00
2022-10-11T12:36:32.720Z,22.40
2022-10-11T12:41:51.693Z,22.20
2022-10-11T12:47:28.429Z,23.10
2022-10-11T12:52:41.093Z,23.60
2022-10-11T12:58:20.234Z,23.40
2022-10-11T13:03:32.791Z,23.00
2022-10-11T13:08:37.901Z,23.10
2022-10-11T13:13:43.728Z,23.40
2022-10-11T13:18:49.219Z,24.10
2022-10-11T13:23:55.300Z,23.40
2022-10-11T13:28:57.862Z,22.90
2022-10-11T13:34:01.390Z,23.30
2022-10-11T13:39:03.706Z,22.90
2022-10-11T13:44:06.101Z,22.50
2022-10-11T13:49:30.024Z,22.40
2022-10-11T13:55:09.103Z,22.40
2022-10-11T14:00:23.703Z,22.40
2022-10-11T14:05:32.576Z,22.60
2022-10-11T14:10:35.349Z,22.90
2022-10-11T14:15:39.140Z,22.80
2022-10-11T14:20:45.157Z,23.30
2022-10-11T14:25:47.274Z,23.40
2022-10-11T14:30:49.417Z,23.10
2022-10-11T14:35:53.012Z,22.60
2022-10-11T14:40:55.131Z,22.40
2022-10-11T14:45:57.234Z,22.10
2022-10-11T14:51:04.034Z,22.00
2022-10-11T14:56:06.947Z,21.60
2022-10-11T15:01:12.848Z,21.20
2022-10-11T15:06:20.551Z,20.70
2022-10-11T15:11:24.365Z,20.40
2022-10-11T15:16:26.985Z,20.10
2022-10-11T15:21:31.039Z,19.80
2022-10-11T15:26:34.024Z,19.70
2022-10-11T15:31:36.125Z,19.60
2022-10-11T15:36:40.046Z,19.50
2022-10-11T15:41:42.158Z,19.40
2022-10-11T15:46:44.414Z,19.20
2022-10-11T15:51:47.943Z,18.70
2022-10-11T15:56:50.067Z,18.30
2022-10-11T16:01:52.227Z,18.00
2022-10-11T16:06:55.753Z,17.70
2022-10-11T16:11:57.876Z,17.60
2022-10-11T16:17:02.874Z,17.40
2022-10-11T16:22:06.350Z,17.10
2022-10-11T16:27:08.529Z,16.90
2022-10-11T16:32:10.730Z,16.80
2022-10-11T16:37:14.507Z,16.70
2022-10-11T16:42:16.761Z,16.60
2022-10-11T16:47:19.469Z,16.50
2022-10-11T16:52:22.987Z,16.40
2022-10-11T16:57:25.397Z,16.30
2022-10-11T17:02:32.335Z,16.20
2022-10-11T17:07:36.388Z,16.10
2022-10-11T17:12:38.820Z,15.90
2022-10-11T17:17:41.005Z,15.90
2022-10-11T17:22:44.903Z,15.80
2022-10-11T17:27:47.027Z,15.70
2022-10-11T17:32:49.644Z,15.60
2022-10-11T17:37:53.440Z,15.60
2022-10-11T17:42:55.982Z,15.50
2022-10-11T17:48:00.936Z,15.40
2022-10-11T17:53:04.843Z,15.30
2022-10-11T17:58:07.348Z,15.20
2022-10-11T18:03:10.257Z,15.10
2022-10-11T18:08:15.562Z,15.00
2022-10-11T18:13:18.873Z,14.90
2022-10-11T18:18:21.560Z,14.80
2022-10-11T18:23:25.835Z,14.60
2022-10-11T18:28:28.074Z,14.40
2022-10-11T18:33:30.452Z,14.40
2022-10-11T18:38:35.802Z,14.40
2022-10-11T18:43:38.867Z,14.40
2022-10-11T18:48:42.664Z,14.50
2022-10-11T18:53:47.392Z,14.50
2022-10-11T18:58:51.140Z,14.60
2022-10-11T19:03:56.632Z,14.60
2022-10-11T19:09:03.700Z,14.50
2022-10-11T19:14:08.799Z,14.50
2022-10-11T19:19:15.133Z,14.50
2022-10-11T19:24:20.365Z,14.40
2022-10-11T19:29:26.672Z,14.30
2022-10-11T19:34:31.501Z,14.30
2022-10-11T19:39:35.327Z,14.30
2022-10-11T19:44:39.673Z,14.30
2022-10-11T19:49:42.309Z,14.20
2022-10-11T19:54:47.446Z,14.20
2022-10-11T19:59:51.173Z,14.20
2022-10-11T20:04:57.263Z,14.10
2022-10-11T20:10:06.345Z,14.00
2022-10-11T20:15:13.237Z,14.00
2022-10-11T20:20:17.714Z,13.90
2022-10-11T20:25:24.508Z,13.90
2022-10-11T20:30:29.560Z,13.80
2022-10-11T20:35:33.547Z,13.80
2022-10-11T20:40:42.349Z,13.80
2022-10-11T20:45:45.825Z,13.80
2022-10-11T20:50:48.775Z,13.80
2022-10-11T20:55:55.810Z,13.80
2022-10-11T21:01:00.532Z,13.80
2022-10-11T21:06:04.576Z,13.80
2022-10-11T21:11:13.979Z,13.70
2022-10-11T21:16:18.676Z,13.60
2022-10-11T21:21:24.192Z,13.60
2022-10-11T21:26:31.656Z,13.40
2022-10-11T21:31:37.419Z,13.40
2022-10-11T21:36:43.171Z,13.40
2022-10-11T21:41:50.691Z,13.40
2022-10-11T21:47:06.745Z,13.40
2022-10-11T21:52:13.274Z,13.40
2022-10-11T21:57:19.511Z,13.40
2022-10-11T22:02:24.827Z,13.40
2022-10-11T22:07:30.746Z,13.40
2022-10-11T22:12:35.617Z,13.40
2022-10-11T22:17:38.809Z,13.40
2022-10-11T22:22:42.473Z,13.30
2022-10-11T22:27:49.889Z,13.30
2022-10-11T22:32:55.866Z,13.30
2022-10-11T22:37:59.448Z,13.30
2022-10-11T22:43:04.160Z,13.30
2022-10-11T22:48:07.512Z,13.30
2022-10-11T22:53:13.499Z,13.30
2022-10-11T22:58:19.255Z,13.20
2022-10-11T23:03:25.293Z,13.10
2022-10-11T23:08:30.485Z,13.10
2022-10-11T23:13:35.076Z,13.10
2022-10-11T23:18:41.014Z,13.10
2022-10-11T23:23:45.847Z,13.00
2022-10-11T23:28:55.217Z,13.00
2022-10-11T23:33:59.416Z,13.00
2022-10-11T23:39:04.748Z,12.90
2022-10-11T23:44:11.022Z,12.90
2022-10-11T23:49:17.208Z,12.90
2022-10-11T23:54:21.104Z,13.00
2022-10-11T23:59:32.017Z,13.00
